Time;durP1;ratioP1;P1;durP2;ratioP2;P2;SDS_P1;SDS_P2;PMS_P1;PMS_P2;Temp;Humidity;BMP_temperature;BMP_pressure;BME280_temperature;BME280_humidity;BME280_pressure;Samples;Min_cycle;Max_cycle;Signal;HPM_P1;HPM_P2
2022/11/12 00:00:00;;;;;;;5.90;3.53;;;;;;;;;;5116102;28;20071;-66
2022/11/12 00:02:26;;;;;;;9.45;3.80;;;;;;;;;;5114614;28;20036;-65
2022/11/12 00:04:52;;;;;;;6.47;3.53;;;;;;;;;;5115066;28;20036;-66
2022/11/12 00:07:18;;;;;;;7.00;3.15;;;;;;;;;;5116249;28;20044;-65
2022/11/12 00:09:44;;;;;;;7.47;3.28;;;;;;;;;;5114734;28;20046;-65
2022/11/12 00:12:10;;;;;;;7.50;3.97;;;;;;;;;;5115928;28;20044;-65
2022/11/12 00:14:36;;;;;;;6.93;3.50;;;;;;;;;;5116106;28;20043;-65
2022/11/12 00:17:02;;;;;;;6.25;3.70;;;;;;;;;;5114865;28;20042;-65
2022/11/12 00:19:27;;;;;;;9.73;4.13;;;6.80;99.90;;;;;;5115688;28;20047;-66
2022/11/12 00:21:53;;;;;;;7.90;4.30;;;7.20;99.90;;;;;;5115997;28;20032;-65
2022/11/12 00:24:19;;;;;;;7.00;3.55;;;6.70;99.90;;;;;;5116014;27;20031;-65
2022/11/12 00:26:44;;;;;;;10.88;3.28;;;7.30;99.90;;;;;;5115939;28;20122;-65
2022/11/12 00:29:10;;;;;;;5.85;3.90;;;6.80;99.90;;;;;;5115469;28;20038;-65
2022/11/12 00:31:36;;;;;;;4.80;3.22;;;;;;;;;;5115482;28;20051;-65
2022/11/12 00:34:02;;;;;;;8.13;3.83;;;;;;;;;;5097216;28;20040;-65
2022/11/12 00:36:28;;;;;;;6.93;3.88;;;7.20;99.90;;;;;;5115539;28;20084;-65
2022/11/12 00:38:54;;;;;;;7.15;4.00;;;;;;;;;;5115357;28;20036;-65
2022/11/12 00:41:19;;;;;;;7.15;3.90;;;6.50;99.90;;;;;;5115532;28;20046;-66
2022/11/12 00:43:45;;;;;;;5.95;3.33;;;6.50;99.90;;;;;;5115542;28;20487;-65
2022/11/12 00:46:11;;;;;;;9.93;3.70;;;7.00;99.90;;;;;;5115203;28;20114;-65
2022/11/12 00:48:36;;;;;;;8.85;4.00;;;6.80;99.90;;;;;;5115445;28;20036;-66
2022/11/12 00:51:04;;;;;;;6.32;3.53;;;6.90;99.90;;;;;;5115292;28;20044;-65
2022/11/12 00:53:29;;;;;;;7.00;3.58;;;6.50;99.90;;;;;;5074433;28;20123;-65
2022/11/12 00:56:05;;;;;;;8.32;3.88;;;;;;;;;;5074740;28;20080;-66
2022/11/12 00:58:32;;;;;;;9.15;4.10;;;;;;;;;;5074802;28;20040;-66
2022/11/12 01:01:03;;;;;;;6.40;4.13;;;;;;;;;;5074326;28;20075;-65
2022/11/12 01:03:29;;;;;;;;;;;;;;;;;;5074963;28;20037;-65
2022/11/12 01:06:00;;;;;;;7.05;4.07;;;;;;;;;;5074518;28;20495;-65
2022/11/12 01:08:28;;;;;;;11.50;4.10;;;;;;;;;;5074429;28;20063;-65
2022/11/12 01:10:54;;;;;;;11.35;4.53;;;;;;;;;;5074027;28;20051;-65
2022/11/12 01:13:20;;;;;;;10.15;4.50;;;;;;;;;;5074141;28;20036;-65
2022/11/12 01:15:46;;;;;;;6.70;4.53;;;;;;;;;;5074055;28;20140;-66
2022/11/12 01:18:12;;;;;;;9.40;4.93;;;;;;;;;;5074172;28;20043;-65
2022/11/12 01:20:38;;;;;;;11.75;5.00;;;;;;;;;;5073891;28;20036;-65
2022/11/12 01:23:05;;;;;;;8.00;4.75;;;;;;;;;;5074166;28;20094;-65
2022/11/12 01:25:31;;;;;;;12.70;4.40;;;;;;;;;;5074128;28;20546;-66
2022/11/12 01:27:57;;;;;;;6.47;4.65;;;;;;;;;;5074036;28;20037;-66
2022/11/12 01:30:24;;;;;;;10.15;4.07;;;;;;;;;;5073655;28;20036;-65
2022/11/12 01:32:50;;;;;;;7.60;4.32;;;;;;;;;;5073841;28;20131;-65
2022/11/12 01:35:16;;;;;;;8.85;5.28;;;;;;;;;;5073889;28;20041;-65
2022/11/12 01:37:42;;;;;;;7.28;4.45;;;;;;;;;;5073777;28;20441;-65
2022/11/12 01:40:09;;;;;;;7.75;4.45;;;;;;;;;;5073873;28;20543;-65
2022/11/12 01:42:35;;;;;;;8.85;4.72;;;;;;;;;;5073820;28;20032;-65
2022/11/12 01:45:01;;;;;;;7.43;3.92;;;;;;;;;;5073826;28;20064;-65
2022/11/12 01:47:30;;;;;;;7.13;4.20;;;;;;;;;;5073756;28;20488;-65
2022/11/12 01:50:00;;;;;;;4.50;3.30;;;;;;;;;;5073778;28;20048;-65
2022/11/12 01:52:31;;;;;;;6.65;4.20;;;;;;;;;;5094849;28;20066;-67
2022/11/12 01:55:02;;;;;;;12.18;4.95;;;;;;;;;;5114264;28;20498;-65
2022/11/12 01:57:34;;;;;;;7.78;4.57;;;6.50;99.90;;;;;;5114143;28;20079;-65
2022/11/12 02:00:06;;;;;;;7.47;4.88;;;6.30;99.90;;;;;;5114229;28;20075;-65
2022/11/12 02:02:33;;;;;;;6.65;4.28;;;;;;;;;;5114268;28;20175;-65
2022/11/12 02:05:00;;;;;;;7.47;4.82;;;;;;;;;;5112563;28;20046;-65
2022/11/12 02:07:26;;;;;;;8.73;4.20;;;;;;;;;;5113991;28;20047;-65
2022/11/12 02:09:52;;;;;;;7.43;4.75;;;;;;;;;;5112742;28;20088;-65
2022/11/12 02:15:03;;;;;;;8.02;4.90;;;;;;;;;;5114013;28;20039;-65
2022/11/12 02:17:29;;;;;;;12.32;5.47;;;;;;;;;;5113846;28;20503;-65
2022/11/12 02:19:58;;;;;;;7.93;4.38;;;;;;;;;;5112675;28;20047;-65
2022/11/12 02:22:24;;;;;;;9.32;5.28;;;;;;;;;;5113894;28;20043;-65
2022/11/12 02:24:50;;;;;;;8.98;4.03;;;;;;;;;;5112764;28;20031;-65
2022/11/12 02:27:16;;;;;;;9.02;4.53;;;;;;;;;;5115914;28;20101;-65
2022/11/12 02:29:45;;;;;;;6.72;4.22;;;;;;;;;;5117865;28;20043;-65
2022/11/12 02:32:14;;;;;;;5.18;4.05;;;;;;;;;;5116632;28;20439;-65
2022/11/12 02:34:40;;;;;;;8.73;4.90;;;;;;;;;;5118016;28;20035;-65
2022/11/12 02:37:07;;;;;;;8.73;4.90;;;;;;;;;;5117583;28;20157;-65
2022/11/12 02:39:33;;;;;;;8.57;4.45;;;;;;;;;;5117938;28;20387;-65
2022/11/12 02:41:59;;;;;;;9.38;5.35;;;;;;;;;;5117911;28;20063;-65
2022/11/12 02:44:25;;;;;;;7.03;4.85;;;;;;;;;;5117889;28;20097;-65
2022/11/12 02:46:51;;;;;;;10.40;5.10;;;;;;;;;;5117505;28;20215;-65
2022/11/12 02:49:17;;;;;;;10.65;5.13;;;;;;;;;;5117828;28;20571;-65
2022/11/12 02:51:43;;;;;;;9.02;5.05;;;;;;;;;;5117315;28;20055;-65
2022/11/12 02:54:09;;;;;;;7.93;4.55;;;;;;;;;;5117399;28;20047;-65
2022/11/12 02:56:35;;;;;;;9.23;4.93;;;;;;;;;;5117208;28;20047;-65
2022/11/12 02:59:01;;;;;;;7.65;4.35;;;;;;;;;;5117270;28;20039;-65
2022/11/12 03:01:28;;;;;;;6.82;4.22;;;;;;;;;;5117472;28;20032;-65
2022/11/12 03:03:54;;;;;;;9.73;4.38;;;;;;;;;;5117162;28;20032;-65
2022/11/12 03:06:20;;;;;;;8.20;4.78;;;;;;;;;;5117447;28;20394;-65
2022/11/12 03:08:46;;;;;;;9.80;5.55;;;;;;;;;;5117403;28;20482;-65
2022/11/12 03:11:13;;;;;;;9.00;4.97;;;;;;;;;;5117008;28;20427;-65
2022/11/12 03:13:40;;;;;;;9.85;5.03;;;;;;;;;;5117296;28;20128;-65
2022/11/12 03:16:06;;;;;;;11.27;4.97;;;;;;;;;;5117306;28;20164;-66
2022/11/12 03:18:32;;;;;;;11.48;4.68;;;;;;;;;;5117165;28;20044;-65
2022/11/12 03:20:58;;;;;;;9.38;5.15;;;;;;;;;;5115620;28;20046;-65
2022/11/12 03:23:25;;;;;;;8.75;5.30;;;;;;;;;;5116991;28;20118;-65
2022/11/12 03:25:51;;;;;;;10.82;4.80;;;;;;;;;;5117053;28;20036;-66
2022/11/12 03:28:17;;;;;;;10.45;5.00;;;;;;;;;;5117039;28;20527;-65
2022/11/12 03:30:44;;;;;;;7.03;4.40;;;;;;;;;;5115458;28;20045;-65
2022/11/12 03:33:11;;;;;;;8.68;4.68;;;;;;;;;;5116967;28;20035;-65
2022/11/12 03:35:38;;;;;;;7.60;5.00;;;;;;;;;;5116797;28;20042;-65
2022/11/12 03:38:04;;;;;;;9.50;5.45;;;;;;;;;;5116736;28;20127;-65
2022/11/12 03:40:31;;;;;;;9.05;5.13;;;;;;;;;;5098204;28;20040;-65
2022/11/12 03:42:57;;;;;;;7.97;5.53;;;;;;;;;;5115517;28;20038;-65
2022/11/12 03:45:24;;;;;;;8.55;4.97;;;;;;;;;;5116720;28;20577;-65
2022/11/12 03:47:52;;;;;;;9.05;5.22;;;;;;;;;;5116538;28;20044;-65
2022/11/12 03:50:19;;;;;;;7.40;4.25;;;;;;;;;;5116621;28;20099;-65
2022/11/12 03:52:49;;;;;;;11.70;4.57;;;;;;;;;;5116162;28;20059;-66
2022/11/12 03:55:16;;;;;;;8.82;4.88;;;;;;;;;;5116542;28;20502;-65
2022/11/12 03:57:42;;;;;;;11.73;4.65;;;5.90;99.90;;;;;;5116071;28;20046;-65
2022/11/12 04:00:09;;;;;;;8.13;4.65;;;6.50;99.90;;;;;;5116440;28;20044;-65
2022/11/12 04:02:36;;;;;;;7.85;4.47;;;5.60;99.90;;;;;;5116047;28;20035;-65
2022/11/12 04:10:44;;;;;;;7.72;4.55;;;5.40;99.90;;;;;;5115906;28;20059;-66
2022/11/12 04:13:28;;;;;;;7.18;5.05;;;5.40;99.90;;;;;;5116230;28;20118;-65
2022/11/12 04:21:50;;;;;;;7.25;4.68;;;5.60;99.90;;;;;;5115642;28;20136;-65
2022/11/12 04:27:09;;;;;;;7.50;4.38;;;5.60;99.90;;;;;;5115658;28;20497;-65
2022/11/12 04:32:19;;;;;;;6.78;4.35;;;5.50;99.90;;;;;;5115466;28;20050;-65
2022/11/12 04:34:45;;;;;;;5.95;4.70;;;5.60;99.90;;;;;;5097627;28;20039;-65
2022/11/12 04:37:10;;;;;;;9.43;5.57;;;6.00;99.90;;;;;;5115299;28;20035;-65
2022/11/12 04:39:36;;;;;;;5.85;3.75;;;5.60;99.90;;;;;;5115306;28;20085;-65
2022/11/12 04:45:03;;;;;;;7.07;4.57;;;5.60;99.90;;;;;;5115427;28;20132;-66
2022/11/12 04:47:38;;;;;;;10.65;5.20;;;5.60;99.90;;;;;;5115266;28;20085;-65
2022/11/12 04:50:13;;;;;;;7.30;4.80;;;5.70;99.90;;;;;;5114957;28;20071;-65
2022/11/12 04:52:39;;;;;;;7.50;4.45;;;5.50;99.90;;;;;;5115073;28;20051;-65
2022/11/12 04:55:05;;;;;;;6.43;4.32;;;5.70;99.90;;;;;;5115440;28;20484;-65
2022/11/12 04:57:30;;;;;;;4.60;3.90;;;5.50;99.90;;;;;;5115275;28;20081;-65
2022/11/12 04:59:56;;;;;;;7.97;4.13;;;5.60;99.90;;;;;;5115319;28;20470;-65
2022/11/12 05:02:22;;;;;;;7.13;4.90;;;6.30;99.90;;;;;;5114035;28;20033;-65
2022/11/12 05:04:48;;;;;;;9.45;4.47;;;6.00;99.90;;;;;;5115163;28;20047;-65
2022/11/12 05:07:14;;;;;;;7.45;4.65;;;5.80;99.90;;;;;;5115100;28;20039;-65
2022/11/12 05:09:40;;;;;;;8.95;4.88;;;5.80;99.90;;;;;;5115054;28;20055;-65
2022/11/12 05:12:06;;;;;;;8.95;4.53;;;5.50;99.90;;;;;;5113872;28;20074;-65
2022/11/12 05:14:32;;;;;;;7.78;4.95;;;5.50;99.90;;;;;;5113710;28;20047;-65
2022/11/12 05:16:58;;;;;;;6.47;4.30;;;6.00;99.90;;;;;;5114822;28;20043;-65
2022/11/12 05:19:23;;;;;;;10.25;4.10;;;6.10;99.90;;;;;;5114879;28;20414;-65
2022/11/12 05:22:04;;;;;;;8.52;4.20;;;5.60;99.90;;;;;;5114811;28;20436;-65
2022/11/12 05:24:34;;;;;;;9.63;4.30;;;6.00;99.90;;;;;;5114752;28;20035;-65
2022/11/12 05:26:59;;;;;;;8.63;4.50;;;5.70;99.90;;;;;;5114739;28;20044;-65
2022/11/12 05:29:25;;;;;;;6.68;4.13;;;6.00;99.90;;;;;;5114706;28;20051;-65
2022/11/12 05:31:51;;;;;;;4.82;3.58;;;5.40;99.90;;;;;;5114361;28;20511;-65
2022/11/12 05:34:16;;;;;;;9.75;3.42;;;5.90;99.90;;;;;;5114657;28;20035;-65
2022/11/12 05:36:42;;;;;;;7.32;4.22;;;5.60;99.90;;;;;;5114151;28;20078;-66
2022/11/12 05:39:08;;;;;;;8.18;4.75;;;5.80;99.90;;;;;;5113360;28;20042;-65
2022/11/12 05:41:33;;;;;;;6.55;3.95;;;5.70;99.90;;;;;;5114122;28;20134;-65
2022/11/12 05:43:59;;;;;;;6.53;3.97;;;5.60;99.90;;;;;;5114524;28;20110;-65
2022/11/12 05:46:25;;;;;;;6.55;3.95;;;5.80;99.90;;;;;;5114237;28;20040;-66
2022/11/12 05:48:50;;;;;;;6.18;3.67;;;6.10;99.90;;;;;;5114322;28;20456;-65
2022/11/12 05:51:17;;;;;;;6.53;3.72;;;5.30;99.90;;;;;;5114007;28;20082;-65
2022/11/12 05:53:42;;;;;;;6.63;3.88;;;5.10;99.90;;;;;;5113240;28;20181;-65
2022/11/12 05:56:10;;;;;;;8.00;3.58;;;5.80;99.90;;;;;;5114274;28;20503;-65
2022/11/12 05:58:36;;;;;;;6.03;3.60;;;5.40;99.90;;;;;;5095626;28;20079;-64
2022/11/12 06:01:02;;;;;;;8.20;3.90;;;5.70;99.90;;;;;;5113453;28;20039;-65
2022/11/12 06:03:28;;;;;;;7.63;4.15;;;5.20;99.90;;;;;;5113761;28;20043;-64
2022/11/12 06:05:54;;;;;;;8.15;4.13;;;5.20;99.90;;;;;;5113724;28;20036;-65
2022/11/12 06:08:20;;;;;;;8.23;4.40;;;5.40;99.90;;;;;;5112533;28;20035;-64
2022/11/12 06:10:51;;;;;;;7.88;3.47;;;5.30;99.90;;;;;;5113511;28;20044;-64
2022/11/12 06:13:17;;;;;;;6.30;3.67;;;5.40;99.90;;;;;;5113936;28;20031;-64
2022/11/12 06:15:43;;;;;;;6.55;3.22;;;5.20;99.90;;;;;;5113828;28;20039;-64
2022/11/12 06:18:09;;;;;;;7.15;4.20;;;5.10;99.90;;;;;;5113376;28;20600;-64
2022/11/12 06:20:35;;;;;;;8.07;4.10;;;4.90;99.90;;;;;;5112619;28;20486;-64
2022/11/12 06:23:01;;;;;;;8.02;3.92;;;4.70;99.90;;;;;;5113885;28;20035;-64
2022/11/12 06:25:26;;;;;;;6.43;3.45;;;4.80;99.90;;;;;;5113836;28;20033;-66
2022/11/12 06:27:52;;;;;;;7.70;3.88;;;4.80;99.90;;;;;;5113860;28;20404;-64
2022/11/12 06:30:18;;;;;;;6.28;3.60;;;4.70;99.90;;;;;;5113509;28;20035;-64
2022/11/12 06:32:48;;;;;;;5.90;3.63;;;4.80;99.90;;;;;;5095495;28;20447;-63
2022/11/12 06:35:15;;;;;;;5.78;3.20;;;4.80;99.90;;;;;;5114104;28;20058;-64
2022/11/12 06:37:40;;;;;;;6.72;4.05;;;4.80;99.90;;;;;;5113672;28;20495;-63
2022/11/12 06:40:07;;;;;;;6.78;3.50;;;4.50;99.90;;;;;;5113755;28;20050;-63
2022/11/12 06:42:33;;;;;;;5.70;3.40;;;4.70;99.90;;;;;;5112232;28;20074;-64
2022/11/12 06:44:59;;;;;;;10.00;4.13;;;4.50;99.90;;;;;;5113844;28;20059;-64
2022/11/12 06:47:24;;;;;;;8.25;4.25;;;4.70;99.90;;;;;;5113350;28;20035;-64
2022/11/12 06:49:50;;;;;;;5.43;3.75;;;5.30;99.90;;;;;;5113563;28;20114;-63
2022/11/12 06:52:16;;;;;;;6.47;3.97;;;4.50;99.90;;;;;;5113458;28;20039;-62
2022/11/12 06:54:41;;;;;;;9.00;4.75;;;4.70;99.90;;;;;;5113028;28;20071;-63
2022/11/12 06:57:07;;;;;;;6.03;3.83;;;4.70;99.90;;;;;;5113567;28;20043;-63
2022/11/12 06:59:33;;;;;;;6.05;3.72;;;4.60;99.90;;;;;;5113231;28;20043;-63
2022/11/12 07:01:58;;;;;;;4.72;3.08;;;5.00;99.90;;;;;;5113467;28;20032;-65
2022/11/12 07:04:24;;;;;;;5.60;3.90;;;4.90;99.90;;;;;;5113179;28;20518;-64
2022/11/12 07:06:50;;;;;;;6.63;3.85;;;5.00;99.90;;;;;;5112327;28;20114;-68
2022/11/12 07:09:16;;;;;;;8.43;3.75;;;5.20;99.90;;;;;;5111936;28;20503;-64
2022/11/12 07:11:42;;;;;;;9.38;3.80;;;5.20;99.90;;;;;;5113109;28;20043;-64
2022/11/12 07:14:08;;;;;;;6.50;4.00;;;5.20;99.90;;;;;;5116651;28;20047;-65
2022/11/12 07:16:34;;;;;;;6.97;3.78;;;5.30;99.90;;;;;;5117278;28;20031;-64
2022/11/12 07:19:00;;;;;;;7.18;4.05;;;5.40;99.90;;;;;;5117212;28;20044;-64
2022/11/12 07:21:26;;;;;;;8.18;3.53;;;5.50;99.90;;;;;;5115946;28;20395;-64
2022/11/12 07:23:51;;;;;;;6.72;4.00;;;6.00;99.90;;;;;;5117271;28;20063;-64
2022/11/12 07:26:26;;;;;;;5.82;4.10;;;5.50;99.90;;;;;;5117138;28;20042;-64
2022/11/12 07:28:55;;;;;;;7.70;3.90;;;5.70;99.90;;;;;;5115564;28;20036;-64
2022/11/12 07:31:21;;;;;;;7.63;3.90;;;6.20;99.90;;;;;;5117019;28;20039;-64
2022/11/12 07:33:48;;;;;;;10.90;4.95;;;6.10;99.90;;;;;;5115758;28;20046;-64
2022/11/12 07:36:16;;;;;;;9.85;3.80;;;;;;;;;;5116639;28;20110;-65
2022/11/12 07:38:42;;;;;;;11.07;4.25;;;;;;;;;;5116428;28;20036;-66
2022/11/12 07:41:18;;;;;;;8.52;4.38;;;;;;;;;;5116534;28;20032;-64
2022/11/12 07:43:45;;;;;;;8.70;4.70;;;;;;;;;;5116725;28;20123;-64
2022/11/12 07:46:15;;;;;;;8.63;3.92;;;6.20;99.90;;;;;;5116729;28;20038;-65
2022/11/12 07:48:41;;;;;;;11.55;4.35;;;6.50;99.90;;;;;;5116356;28;20074;-64
2022/11/12 07:51:18;;;;;;;10.50;4.80;;;6.20;99.90;;;;;;5115086;28;20047;-65
2022/11/12 07:53:45;;;;;;;7.82;4.13;;;6.20;99.90;;;;;;5116276;28;20056;-65
2022/11/12 07:56:13;;;;;;;6.43;4.28;;;6.30;99.90;;;;;;5116223;28;20052;-64
2022/11/12 07:58:39;;;;;;;6.00;3.78;;;6.30;99.90;;;;;;5116079;28;20047;-65
2022/11/12 08:01:29;;;;;;;7.47;4.20;;;6.30;99.90;;;;;;5116412;28;20040;-64
2022/11/12 08:03:55;;;;;;;9.43;3.90;;;6.60;99.90;;;;;;5115617;28;20054;-65
2022/11/12 08:10:06;;;;;;;8.77;4.32;;;6.40;99.90;;;;;;5115844;28;20178;-64
2022/11/12 08:12:31;;;;;;;13.05;4.95;;;6.50;99.90;;;;;;5114665;28;20043;-65
2022/11/12 08:14:57;;;;;;;12.27;4.38;;;6.50;99.90;;;;;;5116135;28;20035;-63
2022/11/12 08:17:22;;;;;;;11.10;4.93;;;6.50;99.90;;;;;;5114776;28;20046;-64
2022/11/12 08:19:54;;;;;;;17.17;4.63;;;6.50;99.90;;;;;;5116062;28;20071;-64
2022/11/12 08:22:38;;;;;;;12.05;4.63;;;6.60;99.90;;;;;;5115042;27;20035;-63
2022/11/12 08:25:04;;;;;;;10.88;4.65;;;6.60;99.90;;;;;;5114907;28;20115;-64
2022/11/12 08:27:30;;;;;;;13.75;4.95;;;6.60;99.90;;;;;;5115877;28;20481;-64
2022/11/12 08:29:55;;;;;;;9.35;5.00;;;6.60;99.90;;;;;;5115926;28;20043;-64
2022/11/12 08:32:21;;;;;;;16.17;5.63;;;6.70;99.90;;;;;;5115649;28;20047;-65
2022/11/12 08:34:47;;;;;;;19.17;4.78;;;6.70;99.90;;;;;;5129237;27;20482;-63
2022/11/12 08:37:12;;;;;;;17.00;4.90;;;6.70;99.90;;;;;;5136040;27;20039;-63
2022/11/12 08:39:38;;;;;;;14.60;5.80;;;6.70;99.90;;;;;;5135655;27;20039;-63
2022/11/12 08:42:04;;;;;;;17.75;4.90;;;;;;;;;;5136123;27;20036;-64
2022/11/12 08:44:30;;;;;;;8.10;4.93;;;7.30;99.90;;;;;;5135918;27;20545;-64
2022/11/12 08:46:55;;;;;;;8.35;4.70;;;7.70;99.90;;;;;;5136020;27;20118;-63
2022/11/12 08:49:21;;;;;;;15.70;5.35;;;7.00;99.90;;;;;;5135851;27;20035;-63
2022/11/12 08:51:47;;;;;;;19.05;6.22;;;7.10;99.90;;;;;;5117158;27;20431;-63
2022/11/12 08:54:12;;;;;;;15.77;5.40;;;7.10;99.90;;;;;;5135400;27;20412;-63
2022/11/12 08:56:38;;;;;;;14.70;5.50;;;7.10;99.90;;;;;;5135677;27;20398;-66
2022/11/12 08:59:04;;;;;;;8.77;5.20;;;7.30;99.90;;;;;;5135642;27;20043;-62
2022/11/12 09:01:30;;;;;;;9.15;5.65;;;7.20;99.90;;;;;;5135514;27;20108;-63
2022/11/12 09:03:55;;;;;;;9.35;4.78;;;7.50;99.90;;;;;;5135671;27;20035;-64
2022/11/12 09:06:21;;;;;;;15.35;5.20;;;7.30;99.90;;;;;;5135429;27;20091;-63
2022/11/12 09:08:47;;;;;;;13.65;7.22;;;7.90;99.90;;;;;;5135563;27;20065;-64
2022/11/12 09:11:13;;;;;;;14.05;6.28;;;7.40;99.90;;;;;;5135477;27;20466;-63
2022/11/12 09:13:38;;;;;;;15.55;6.50;;;7.40;99.90;;;;;;5116737;27;20077;-64
2022/11/12 09:16:06;;;;;;;19.92;6.45;;;7.50;99.90;;;;;;5135305;27;20035;-64
2022/11/12 09:18:33;;;;;;;14.32;7.38;;;7.50;99.90;;;;;;5135194;27;20043;-64
2022/11/12 09:21:00;;;;;;;13.27;7.70;;;7.60;99.90;;;;;;5135337;27;20031;-64
2022/11/12 09:23:27;;;;;;;16.67;7.65;;;7.90;99.90;;;;;;5135213;27;20497;-64
2022/11/12 09:25:55;;;;;;;16.55;7.68;;;7.60;99.90;;;;;;5135211;27;20038;-63
2022/11/12 09:28:20;;;;;;;13.30;5.82;;;7.60;99.90;;;;;;5134768;27;20146;-69
2022/11/12 09:30:48;;;;;;;10.70;5.80;;;7.80;99.90;;;;;;5116126;27;20043;-64
2022/11/12 09:33:15;;;;;;;10.25;5.53;;;7.90;99.90;;;;;;5116698;27;20397;-63
2022/11/12 09:35:41;;;;;;;10.93;6.10;;;8.10;99.90;;;;;;5134864;27;20039;-64
2022/11/12 09:38:07;;;;;;;11.57;6.20;;;7.90;99.90;;;;;;5116196;27;20043;-63
2022/11/12 09:40:35;;;;;;;8.55;5.07;;;8.00;99.90;;;;;;5134459;27;20504;-65
2022/11/12 09:43:29;;;;;;;10.63;5.32;;;8.10;99.90;;;;;;5134998;27;20042;-64
2022/11/12 09:45:58;;;;;;;6.28;4.57;;;8.10;99.90;;;;;;5133671;27;20043;-64
2022/11/12 09:48:31;;;;;;;8.77;4.82;;;8.10;99.90;;;;;;5116026;27;20112;-65
2022/11/12 09:51:05;;;;;;;8.10;4.70;;;8.00;99.90;;;;;;5134345;27;20043;-64
2022/11/12 09:53:57;;;;;;;8.90;4.90;;;8.00;99.90;;;;;;5134091;27;20059;-63
2022/11/12 09:56:25;;;;;;;7.15;4.28;;;8.00;99.90;;;;;;5134819;27;20482;-64
2022/11/12 09:58:52;;;;;;;8.80;4.50;;;8.10;99.90;;;;;;5134257;27;20050;-64
2022/11/12 10:01:26;;;;;;;7.15;5.05;;;8.30;99.90;;;;;;5134669;27;20035;-64
2022/11/12 10:04:02;;;;;;;6.63;3.60;;;8.00;99.90;;;;;;5134721;27;20490;-63
2022/11/12 10:06:44;;;;;;;6.13;3.72;;;8.00;99.90;;;;;;5134355;27;20043;-63
2022/11/12 10:09:14;;;;;;;6.15;4.30;;;8.00;99.90;;;;;;5134319;27;20047;-63
2022/11/12 10:18:51;;;;;;;8.35;4.22;;;7.90;99.90;;;;;;5134504;27;20039;-64
2022/11/12 10:21:17;;;;;;;10.18;4.57;;;7.90;99.90;;;;;;5050998;28;20093;-66
2022/11/12 10:23:45;;;;;;;10.73;3.97;;;8.30;99.90;;;;;;5050992;28;20068;-68
2022/11/12 10:26:17;;;;;;;7.03;4.55;;;7.90;99.90;;;;;;5090950;28;20043;-64
2022/11/12 10:28:54;;;;;;;6.13;4.45;;;7.90;99.90;;;;;;5134156;28;20031;-64
2022/11/12 10:31:20;;;;;;;8.35;4.43;;;8.00;99.90;;;;;;5134376;28;20088;-63
2022/11/12 10:33:46;;;;;;;6.50;4.45;;;8.00;99.90;;;;;;5134258;28;20039;-63
2022/11/12 10:36:30;;;;;;;7.47;4.13;;;8.00;99.90;;;;;;5134413;28;20031;-63
2022/11/12 10:38:56;;;;;;;7.70;4.15;;;8.10;99.90;;;;;;5134216;28;20047;-64
2022/11/12 10:41:29;;;;;;;7.97;4.55;;;8.30;99.90;;;;;;5134023;28;20054;-63
2022/11/12 10:44:00;;;;;;;8.95;3.72;;;8.30;99.90;;;;;;5134330;28;20546;-63
2022/11/12 10:46:36;;;;;;;6.20;3.85;;;8.70;99.90;;;;;;5133975;28;20045;-63
2022/11/12 10:49:14;;;;;;;10.75;4.93;;;8.50;99.90;;;;;;5119102;27;20047;-63
2022/11/12 10:51:40;;;;;;;11.70;4.57;;;8.50;99.90;;;;;;5138350;27;20486;-63
2022/11/12 10:54:36;;;;;;;5.53;4.10;;;8.40;99.90;;;;;;5137887;27;20142;-63
2022/11/12 10:57:23;;;;;;;9.60;4.43;;;8.50;99.90;;;;;;5119819;27;20114;-64
2022/11/12 11:00:12;;;;;;;7.25;4.22;;;8.60;99.90;;;;;;5102843;27;20122;-63
2022/11/12 11:02:52;;;;;;;7.93;4.63;;;8.50;99.90;;;;;;5138157;27;20031;-64
2022/11/12 11:05:53;;;;;;;8.27;4.68;;;8.60;99.90;;;;;;5137765;27;20558;-64
2022/11/12 11:09:27;;;;;;;7.38;4.63;;;8.60;99.90;;;;;;5138124;27;20525;-63
2022/11/12 11:11:53;;;;;;;6.22;3.97;;;8.70;99.90;;;;;;5045844;28;20049;-63
2022/11/12 11:14:21;;;;;;;8.40;4.88;;;9.10;99.90;;;;;;5054432;28;20045;-64
2022/11/12 11:17:03;;;;;;;7.45;4.20;;;9.00;99.90;;;;;;5111047;27;20047;-64
2022/11/12 11:19:38;;;;;;;7.85;4.35;;;9.20;99.90;;;;;;5137833;27;20053;-64
2022/11/12 11:22:36;;;;;;;10.57;5.53;;;9.40;99.90;;;;;;5119142;27;20038;-64
2022/11/12 11:25:21;;;;;;;7.30;4.50;;;9.50;99.90;;;;;;5136660;27;20043;-63
2022/11/12 11:28:19;;;;;;;6.65;4.88;;;9.60;99.90;;;;;;5137720;27;20497;-64
2022/11/12 11:30:58;;;;;;;9.63;4.75;;;10.20;99.90;;;;;;5119336;27;20039;-63
2022/11/12 11:33:44;;;;;;;9.40;5.22;;;10.30;99.90;;;;;;5137570;27;20040;-67
2022/11/12 11:36:19;;;;;;;7.43;5.10;;;10.80;99.90;;;;;;5137493;27;20079;-64
2022/11/12 11:38:55;;;;;;;10.52;4.68;;;10.80;99.90;;;;;;5118666;27;20050;-64
2022/11/12 11:41:50;;;;;;;9.50;4.65;;;10.90;99.90;;;;;;5137320;27;20035;-64
2022/11/12 11:44:18;;;;;;;7.22;5.07;;;10.80;99.90;;;;;;5137297;27;20054;-64
2022/11/12 11:47:02;;;;;;;7.70;4.22;;;10.80;99.90;;;;;;5136945;27;20043;-64
2022/11/12 11:50:00;;;;;;;5.50;4.13;;;10.80;99.90;;;;;;5137206;27;20091;-64
2022/11/12 11:52:51;;;;;;;10.05;4.65;;;10.80;99.90;;;;;;5112905;27;20059;-64
2022/11/12 11:55:23;;;;;;;13.00;5.30;;;10.90;99.90;;;;;;5137190;27;20122;-64
2022/11/12 11:58:23;;;;;;;10.00;4.72;;;11.00;99.90;;;;;;5136915;27;20437;-68
2022/11/12 12:01:19;;;;;;;9.70;5.30;;;11.00;99.90;;;;;;5135863;27;20035;-64
2022/11/12 12:04:03;;;;;;;10.57;5.03;;;11.10;99.90;;;;;;5136868;27;20406;-64
2022/11/12 12:06:44;;;;;;;8.05;4.30;;;11.30;99.90;;;;;;5136886;27;20057;-64
2022/11/12 12:09:29;;;;;;;7.93;4.43;;;11.30;99.90;;;;;;5136836;27;20042;-64
2022/11/12 12:12:16;;;;;;;9.30;4.85;;;11.40;99.90;;;;;;5136426;27;20054;-64
2022/11/12 12:15:17;;;;;;;6.93;4.45;;;11.60;99.90;;;;;;5136375;27;20125;-64
2022/11/12 12:18:11;;;;;;;8.57;4.38;;;11.90;99.90;;;;;;5136287;27;20051;-65
2022/11/12 12:20:56;;;;;;;12.45;4.75;;;12.10;99.90;;;;;;5136145;27;20035;-64
2022/11/12 12:23:48;;;;;;;6.55;3.97;;;12.10;99.90;;;;;;5136232;27;20036;-64
2022/11/12 12:26:16;;;;;;;;;;;12.10;99.90;;;;;;5136660;27;20031;-64
2022/11/12 12:28:49;;;;;;;6.75;4.20;;;11.90;99.90;;;;;;5136142;27;19923;-64
2022/11/12 12:31:19;;;;;;;7.68;4.47;;;11.90;99.90;;;;;;5117775;27;20047;-64
2022/11/12 12:33:56;;;;;;;8.43;5.32;;;11.80;99.90;;;;;;5117948;27;20550;-64
2022/11/12 12:36:38;;;;;;;8.75;5.00;;;11.70;99.90;;;;;;5101466;27;20110;-64
2022/11/12 12:39:16;;;;;;;8.27;5.57;;;11.50;99.90;;;;;;5135924;27;20514;-64
2022/11/12 12:41:52;;;;;;;9.32;5.00;;;11.40;99.90;;;;;;5117593;27;20043;-64
2022/11/12 12:44:17;;;;;;;6.88;4.30;;;11.40;99.90;;;;;;5136134;27;20039;-64
2022/11/12 12:46:55;;;;;;;6.55;4.20;;;11.40;99.90;;;;;;5136168;27;20501;-64
2022/11/12 12:49:35;;;;;;;11.27;4.82;;;11.40;99.90;;;;;;5135807;27;20118;-64
2022/11/12 12:52:01;;;;;;;7.75;4.65;;;11.30;99.90;;;;;;5135769;27;20039;-65
2022/11/12 12:54:39;;;;;;;9.55;4.88;;;11.30;99.90;;;;;;5135553;27;20167;-64
2022/11/12 12:57:24;;;;;;;5.30;3.92;;;11.20;99.90;;;;;;5135542;27;20100;-64
2022/11/12 12:59:50;;;;;;;7.80;4.68;;;11.20;99.90;;;;;;5135598;27;20065;-64
2022/11/12 13:02:22;;;;;;;8.80;4.57;;;11.20;99.90;;;;;;5135763;27;20035;-64
2022/11/12 13:04:56;;;;;;;6.32;4.10;;;11.40;99.90;;;;;;5135758;27;20032;-64
2022/11/12 13:07:40;;;;;;;7.28;4.65;;;11.20;99.90;;;;;;5135718;27;20042;-64
2022/11/12 13:10:46;;;;;;;6.53;4.57;;;11.20;99.90;;;;;;5135316;27;20482;-64
2022/11/12 13:13:18;;;;;;;7.53;4.72;;;11.20;99.90;;;;;;5135286;27;20035;-64
2022/11/12 13:15:58;;;;;;;8.55;5.10;;;11.20;99.90;;;;;;5135273;27;20039;-64
2022/11/12 13:18:39;;;;;;;6.22;3.83;;;11.20;99.90;;;;;;5135138;27;20047;-65
2022/11/12 13:21:10;;;;;;;6.65;4.43;;;11.20;99.90;;;;;;5135505;27;20578;-64
2022/11/12 13:24:07;;;;;;;10.95;5.13;;;11.20;99.90;;;;;;5116689;27;20035;-64
2022/11/12 13:26:38;;;;;;;10.13;5.18;;;11.20;99.90;;;;;;5135387;27;20113;-64
2022/11/12 13:29:24;;;;;;;8.07;4.90;;;11.20;99.90;;;;;;5134993;27;20082;-64
2022/11/12 13:32:28;;;;;;;7.13;4.78;;;11.10;99.90;;;;;;5116561;27;20050;-64
2022/11/12 13:35:16;;;;;;;8.20;4.50;;;11.10;99.90;;;;;;5135198;27;20066;-64
2022/11/12 13:38:08;;;;;;;7.50;4.68;;;11.10;99.90;;;;;;5134926;27;20039;-64
2022/11/12 13:41:05;;;;;;;8.35;4.30;;;11.10;99.90;;;;;;5134703;27;20039;-65
2022/11/12 13:43:43;;;;;;;9.27;4.75;;;11.10;99.90;;;;;;5135084;27;20039;-64
2022/11/12 13:46:30;;;;;;;7.25;4.93;;;11.10;99.90;;;;;;5116366;27;20110;-65
2022/11/12 13:49:02;;;;;;;7.97;4.55;;;11.00;99.90;;;;;;5116310;27;20046;-64
2022/11/12 13:52:03;;;;;;;9.88;4.65;;;11.00;99.90;;;;;;5116240;27;20039;-65
2022/11/12 13:54:36;;;;;;;12.73;4.85;;;11.00;99.90;;;;;;5034717;28;20083;-64
2022/11/12 13:57:22;;;;;;;9.43;4.60;;;11.00;99.90;;;;;;5120933;27;20541;-64
2022/11/12 13:59:49;;;;;;;6.55;4.05;;;11.10;99.90;;;;;;5134770;27;20075;-64
2022/11/12 14:02:22;;;;;;;8.63;3.85;;;11.00;99.90;;;;;;5134434;27;20118;-64
2022/11/12 14:04:49;;;;;;;10.88;4.38;;;11.10;99.90;;;;;;5134575;27;20046;-65
2022/11/12 14:07:30;;;;;;;5.00;3.75;;;11.10;99.90;;;;;;5134366;27;20042;-65
2022/11/12 14:10:23;;;;;;;4.18;2.85;;;11.10;99.90;;;;;;5134659;27;20517;-64
2022/11/12 14:13:17;;;;;;;6.38;4.25;;;11.10;99.90;;;;;;5130187;27;20050;-64